Latest Weather Observations for Charles Point

IDD60901

Issued at 7:15 pm CST Wednesday 22 October 2014 (issued every 10 minutes, with the page automatically refreshed every 10 minutes)

About weather observations | Map of Darwin area stations | Latest observations for Darwin area | Other Formats
Station Details ID: 014031 Name: CHARLES POINT Lat: -12.39 Lon: 130.63 Height: 14.0 m
Data from the previous 72 hours. | See also: Recent months for locations in Northern Territory
Date/Time
CST
Tmp

°C
App
Tmp
°C
Dew
Point
°C
Rel
Hum
%
Delta-T

°C
Wind Press
QNH
hPa
Press
MSL
hPa
Rain
since
9 am
mm
Dir
 
Spd
km/h
Gust
km/h
Spd
kts
Gust
kts
22/07:00pm 29.1 31.5 19.7 57 6.1 SSW 6 6 3 3 1011.2 1011.1 0.0
22/06:30pm 30.2 32.8 19.3 52 7.1 W 4 6 2 3 1010.9 1010.8 0.0
22/06:00pm 31.2 33.6 18.9 48 8.0 N 4 6 2 3 1010.6 1010.5 0.0
22/05:30pm 31.3 33.4 19.0 48 8.0 N 6 7 3 4 1010.5 1010.4 0.0
22/05:00pm 30.6 32.4 19.6 51 7.2 N 9 13 5 7 1010.4 1010.3 0.0
22/04:30pm 29.9 31.8 22.1 63 5.3 N 15 17 8 9 1010.2 1010.1 0.0
22/04:00pm 30.3 32.0 21.7 60 5.8 N 15 19 8 10 1010.3 1010.2 0.0
22/03:30pm 29.9 32.1 22.6 65 5.0 N 15 20 8 11 1010.6 1010.5 0.0
22/03:00pm 29.7 31.2 22.7 66 4.8 N 19 22 10 12 1010.8 1010.7 0.0
22/02:30pm 29.8 31.2 22.5 65 5.0 N 19 22 10 12 1011.3 1011.2 0.0
22/02:00pm 29.7 30.5 22.4 65 5.0 N 22 28 12 15 1011.8 1011.7 0.0
22/01:30pm 29.6 30.3 22.3 65 5.0 N 22 26 12 14 1012.3 1012.2 0.0
22/01:00pm 29.4 30.4 22.1 65 4.9 N 20 26 11 14 1013.0 1012.9 0.0
22/12:30pm 29.6 30.8 22.1 64 5.1 N 19 24 10 13 1013.7 1013.6 0.0
22/12:00pm 29.5 31.1 21.4 61 5.4 N 15 19 8 10 1014.1 1014.0 0.0
22/11:30am 29.4 31.6 21.1 61 5.5 N 11 17 6 9 1014.7 1014.6 0.0
22/11:00am 29.6 32.5 21.0 60 5.7 NNE 7 11 4 6 1015.1 1015.0 0.0
22/10:30am 30.0 33.3 21.4 60 5.8 E 6 9 3 5 1015.3 1015.2 0.0
22/10:00am 29.1 32.2 20.3 59 5.8 NNE 4 7 2 4 1015.4 1015.3 0.0
22/09:30am 29.0 31.8 20.4 59 5.7 N 6 7 3 4 1015.3 1015.2 0.0
22/09:00am 28.6 31.7 21.4 65 4.8 N 7 9 4 5 1015.3 1015.2 0.0
22/08:30am 28.1 31.1 21.9 69 4.2 N 9 11 5 6 1015.0 1014.9 0.0
22/08:00am 27.6 30.6 21.9 71 3.8 N 9 13 5 7 1014.8 1014.7 0.0
22/07:30am 27.3 29.6 22.0 73 3.6 N 13 17 7 9 1014.4 1014.3 0.0
22/07:00am 27.1 29.6 21.8 73 3.5 N 11 15 6 8 1014.3 1014.2 0.0
22/06:30am 27.0 29.9 21.7 73 3.5 NNE 9 17 5 9 1014.1 1014.0 0.0
22/06:00am 27.1 28.9 21.8 73 3.5 N 15 19 8 10 1013.7 1013.6 0.0
22/05:30am 27.2 28.8 21.5 71 3.8 NE 15 22 8 12 1013.8 1013.7 0.0
22/05:00am 27.3 29.2 22.0 73 3.6 NE 15 20 8 11 1013.7 1013.6 0.0
22/04:30am 27.4 29.6 21.9 72 3.7 NE 13 19 7 10 1013.4 1013.3 0.0
22/04:00am 27.3 30.2 21.8 72 3.7 NNE 9 15 5 8 1013.2 1013.1 0.0
22/03:30am 27.4 29.7 22.1 73 3.6 N 13 17 7 9 1012.9 1012.8 0.0
22/03:00am 27.4 29.3 21.4 70 4.0 N 13 17 7 9 1012.9 1012.8 0.0
22/02:30am 27.5 29.1 21.5 70 4.0 N 15 20 8 11 1013.2 1013.1 0.0
22/02:00am 27.6 28.8 22.1 72 3.7 N 19 24 10 13 1013.3 1013.2 0.0
22/01:30am 27.7 28.6 22.0 71 3.8 N 20 26 11 14 1013.6 1013.5 0.0
22/01:00am 27.9 28.5 21.4 67 4.3 N 20 26 11 14 1014.2 1014.1 0.0
22/12:30am 27.8 28.0 22.1 71 3.8 N 24 30 13 16 1014.4 1014.3 0.0
22/12:00am 27.8 28.5 23.0 75 3.3 N 24 30 13 16 1014.7 1014.6 0.0
 
Date/Time
CST
Tmp

°C
App
Tmp
°C
Dew
Point
°C
Rel
Hum
%
Delta-T

°C
Wind Press
QNH
hPa
Press
MSL
hPa
Rain
since
9 am
mm
Dir
 
Spd
km/h
Gust
km/h
Spd
kts
Gust
kts
21/11:30pm 28.2 29.1 22.7 72 3.7 NNW 22 28 12 15 1014.8 1014.7 0.0
21/11:00pm 28.1 29.6 23.0 74 3.5 NNW 20 28 11 15 1015.0 1014.9 0.0
21/10:30pm 28.3 30.2 23.4 75 3.4 NW 19 28 10 15 1014.9 1014.8 0.0
21/10:00pm 28.4 30.2 23.3 74 3.5 NW 19 26 10 14 1014.5 1014.4 0.0
21/09:30pm 28.6 31.7 23.5 74 3.5 NW 13 22 7 12 1014.2 1014.1 0.0
21/09:00pm 27.0 29.7 19.4 63 4.9 SW 4 7 2 4 1013.5 1013.4 0.0
21/08:30pm 27.6 29.5 18.6 58 5.8 SSW 6 7 3 4 1013.0 1012.9 0.0
21/08:00pm 27.5 29.4 18.5 58 5.8 SSW 6 9 3 5 1012.7 1012.6 0.0
21/07:30pm 27.7 30.2 19.0 59 5.6 N 4 6 2 3 1012.5 1012.4 0.0
21/07:00pm 29.2 31.5 18.6 52 6.8 N 4 6 2 3 1012.2 1012.1 0.0
21/06:30pm 30.7 32.5 18.8 49 7.7 NNE 7 11 4 6 1011.8 1011.7 0.0
21/06:00pm 31.1 31.7 16.7 42 9.1 NNE 9 13 5 7 1011.6 1011.5 0.0
21/05:30pm 31.3 31.4 16.5 41 9.3 NNE 11 15 6 8 1011.4 1011.3 0.0
21/05:00pm 31.2 31.1 16.0 40 9.5 NNE 11 17 6 9 1011.3 1011.2 0.0
21/04:30pm 31.2 30.4 16.0 40 9.5 N 15 19 8 10 1011.2 1011.1 0.0
21/04:00pm 30.8 30.0 18.5 47 7.9 N 20 24 11 13 1011.1 1011.0 0.0
21/03:30pm 30.3 30.4 20.0 54 6.8 N 19 22 10 12 1011.3 1011.2 0.0
21/03:00pm 30.3 30.9 21.4 59 6.0 N 20 26 11 14 1011.7 1011.6 0.0
21/02:30pm 30.1 30.8 21.5 60 5.8 N 20 26 11 14 1011.9 1011.8 0.0
21/02:00pm 30.1 30.6 20.9 57 6.1 N 19 22 10 12 1012.5 1012.4 0.0
21/01:30pm 30.3 30.8 20.8 56 6.3 N 19 24 10 13 1013.2 1013.1 0.0
21/01:00pm 30.2 31.3 21.3 59 6.0 N 17 20 9 11 1013.9 1013.8 0.0
21/12:30pm 30.1 31.8 21.7 60 5.7 N 15 19 8 10 1014.5 1014.4 0.0
21/12:00pm 30.3 32.4 21.7 60 5.8 N 13 17 7 9 1015.2 1015.1 0.0
21/11:30am 29.9 32.6 22.1 63 5.3 NNE 11 15 6 8 1015.6 1015.5 0.0
21/11:00am 30.3 33.0 22.2 62 5.5 NE 11 15 6 8 1015.9 1015.8 0.0
21/10:30am 30.4 32.6 21.2 58 6.2 ENE 11 22 6 12 1016.2 1016.1 0.0
21/10:00am 30.3 32.8 21.7 60 5.8 E 11 22 6 12 1016.5 1016.4 0.0
21/09:30am 29.6 32.1 21.8 63 5.2 E 11 19 6 10 1016.4 1016.3 0.0
21/09:00am 28.5 31.7 22.3 69 4.2 NE 9 15 5 8 1015.9 1015.8 0.0
21/08:30am 28.9 30.6 21.7 65 4.8 ENE 15 22 8 12 1015.5 1015.4 0.0
21/08:00am 28.6 31.2 21.9 67 4.5 NE 11 17 6 9 1015.2 1015.1 0.0
21/07:30am 28.3 31.2 21.8 68 4.4 ENE 9 17 5 9 1014.9 1014.8 0.0
21/07:00am 27.9 30.8 21.7 69 4.2 NE 9 15 5 8 1014.9 1014.8 0.0
21/06:30am 27.7 30.2 21.7 70 4.0 ENE 11 17 6 9 1014.5 1014.4 0.0
21/06:00am 27.8 30.1 21.3 67 4.3 ENE 11 19 6 10 1014.2 1014.1 0.0
21/05:30am 28.1 30.5 20.9 65 4.8 NE 9 17 5 9 1013.8 1013.7 0.0
21/05:00am 28.1 30.3 21.1 65 4.7 ENE 11 17 6 9 1013.9 1013.8 0.0
21/04:30am 28.3 30.3 20.8 63 5.0 ENE 11 20 6 11 1013.8 1013.7 0.0
21/04:00am 28.2 30.6 21.5 67 4.5 NNE 11 17 6 9 1013.7 1013.6 0.0
21/03:30am 27.9 30.9 22.6 73 3.6 NNE 11 15 6 8 1013.4 1013.3 0.0
21/03:00am 27.8 30.4 22.7 74 3.5 NNE 13 19 7 10 1013.6 1013.5 0.0
21/02:30am 27.8 29.8 23.0 75 3.3 N 17 20 9 11 1013.6 1013.5 0.0
21/02:00am 27.9 30.6 22.2 71 3.8 N 11 15 6 8 1013.8 1013.7 0.0
21/01:30am 28.0 30.4 22.2 70 3.9 NNW 13 17 7 9 1013.9 1013.8 0.0
21/01:00am 27.9 29.6 22.4 72 3.7 NNW 17 20 9 11 1014.0 1013.9 0.0
21/12:30am 28.1 29.8 23.0 74 3.5 N 19 26 10 14 1014.2 1014.1 0.0
21/12:00am 28.0 29.4 22.9 74 3.5 NNW 20 30 11 16 1014.4 1014.3 0.0
 
Date/Time
CST
Tmp

°C
App
Tmp
°C
Dew
Point
°C
Rel
Hum
%
Delta-T

°C
Wind Press
QNH
hPa
Press
MSL
hPa
Rain
since
9 am
mm
Dir
 
Spd
km/h
Gust
km/h
Spd
kts
Gust
kts
20/11:30pm 28.3 29.4 23.0 73 3.6 NW 22 32 12 17 1014.3 1014.2 0.0
20/11:00pm 26.6 28.8 19.5 65 4.6 W 7 13 4 7 1014.3 1014.2 0.0
20/10:30pm 25.6 27.2 17.8 62 4.9 S 6 7 3 4 1014.0 1013.9 0.0
20/10:00pm 26.5 27.7 17.3 57 5.8 S 7 9 4 5 1013.7 1013.6 0.0
20/09:30pm 26.8 29.1 17.6 57 5.8 SE 2 4 1 2 1013.4 1013.3 0.0
20/09:00pm 26.9 28.3 17.7 57 5.8 SSE 7 9 4 5 1012.9 1012.8 0.0
20/08:30pm 26.5 28.2 18.1 60 5.3 NNW 6 6 3 3 1012.5 1012.4 0.0
20/08:00pm 27.0 29.8 18.0 58 5.7 CALM 0 0 0 0 1012.1 1012.0 0.0
20/07:30pm 27.6 30.3 17.7 54 6.3 CALM 0 0 0 0 1011.8 1011.7 0.0
20/07:00pm 29.3 31.6 17.8 50 7.3 N 2 4 1 2 1011.3 1011.2 0.0
20/06:30pm 30.7 31.6 16.7 43 8.8 N 7 9 4 5 1011.2 1011.1 0.0
20/06:00pm 30.8 31.0 16.8 43 8.8 NNE 11 15 6 8 1010.9 1010.8 0.0
20/05:30pm 30.9 30.9 17.2 43 8.7 NNE 13 20 7 11 1010.5 1010.4 0.0
20/05:00pm 30.7 30.3 18.8 49 7.7 NNE 19 24 10 13 1010.3 1010.2 0.0
20/04:30pm 30.5 30.4 19.5 51 7.2 NE 19 26 10 14 1010.3 1010.2 0.0
20/04:00pm 30.5 31.3 19.8 52 7.0 NNE 15 22 8 12 1010.4 1010.3 0.0
20/03:30pm 30.5 30.9 20.7 55 6.5 NNE 19 24 10 13 1010.4 1010.3 0.0
20/03:00pm 29.8 30.1 21.5 61 5.6 N 22 28 12 15 1010.4 1010.3 0.0
20/02:30pm 29.6 30.6 22.1 64 5.1 N 20 24 11 13 1010.8 1010.7 0.0
20/02:00pm 30.0 31.2 22.2 63 5.3 NNE 19 26 10 14 1011.2 1011.1 0.0
20/01:30pm 29.9 31.1 22.1 63 5.3 N 19 26 10 14 1011.9 1011.8 0.0
20/01:00pm 30.1 31.8 22.3 63 5.3 N 17 20 9 11 1012.6 1012.5 0.0
20/12:30pm 30.3 33.0 23.5 67 4.7 N 15 19 8 10 1013.4 1013.3 0.0
20/12:00pm 29.8 33.0 23.0 67 4.7 N 11 15 6 8 1014.0 1013.9 0.0
20/11:30am 29.7 33.5 22.7 66 4.8 N 7 9 4 5 1014.6 1014.5 0.0
20/11:00am 29.6 33.6 23.1 68 4.5 NNE 7 9 4 5 1014.8 1014.7 0.0
20/10:30am 29.6 33.4 22.8 67 4.6 ENE 7 13 4 7 1015.3 1015.2 0.0
20/10:00am 29.4 32.7 22.6 67 4.6 ENE 9 15 5 8 1015.5 1015.4 0.0
20/09:30am 29.2 33.1 22.9 69 4.3 ENE 7 13 4 7 1015.5 1015.4 0.0
20/09:00am 29.0 33.1 23.2 71 4.0 E 7 15 4 8 1015.2 1015.1 0.0
20/08:30am 28.8 32.7 23.0 71 4.0 E 7 11 4 6 1015.1 1015.0 0.0
20/08:00am 28.7 32.7 23.1 71 3.8 E 7 15 4 8 1014.9 1014.8 0.0
20/07:30am 28.4 32.3 22.9 72 3.7 E 7 13 4 7 1014.5 1014.4 0.0
20/07:00am 27.7 31.6 22.9 75 3.3 E 7 15 4 8 1014.2 1014.1 0.0
20/06:30am 27.5 31.5 23.1 77 3.0 E 7 15 4 8 1013.8 1013.7 0.0
20/06:00am 27.6 31.4 22.8 75 3.3 ENE 7 17 4 9 1013.7 1013.6 0.0
20/05:30am 27.6 31.3 23.2 77 3.0 E 9 17 5 9 1013.3 1013.2 0.0
20/05:00am 27.6 31.3 23.2 77 3.0 ESE 9 15 5 8 1013.2 1013.1 0.0
20/04:30am 28.0 31.4 23.4 76 3.2 ENE 11 19 6 10 1012.9 1012.8 0.0
20/04:00am 27.9 31.0 23.5 77 3.0 ENE 13 19 7 10 1012.9 1012.8 0.0
20/03:30am 27.8 31.4 23.0 75 3.3 NE 9 13 5 7 1012.8 1012.7 0.0
20/03:00am 27.9 31.0 22.8 74 3.5 NE 11 17 6 9 1012.8 1012.7 0.0
20/02:30am 28.0 31.0 22.7 73 3.6 NNE 11 19 6 10 1012.8 1012.7 0.0
20/02:00am 28.0 31.3 23.2 75 3.3 NNE 11 19 6 10 1013.0 1012.9 0.0
20/01:30am 28.2 30.8 22.7 72 3.7 NNE 13 19 7 10 1013.2 1013.1 0.0
20/01:00am 28.3 31.1 23.0 73 3.6 N 13 19 7 10 1013.4 1013.3 0.0
20/12:30am 28.4 31.0 22.6 71 3.9 N 13 17 7 9 1013.7 1013.6 0.0
20/12:00am 28.5 31.3 23.0 72 3.8 NNW 13 17 7 9 1013.9 1013.8 0.0
 
Date/Time
CST
Tmp

°C
App
Tmp
°C
Dew
Point
°C
Rel
Hum
%
Delta-T

°C
Wind Press
QNH
hPa
Press
MSL
hPa
Rain
since
9 am
mm
Dir
 
Spd
km/h
Gust
km/h
Spd
kts
Gust
kts
19/11:30pm 28.4 31.1 23.5 75 3.4 NNW 15 19 8 10 1014.0 1013.9 0.0
19/11:00pm 28.5 31.4 23.2 73 3.6 NNW 13 19 7 10 1013.8 1013.7 0.0
19/10:30pm 28.6 32.6 23.7 75 3.4 WNW 9 15 5 8 1013.8 1013.7 0.0
19/10:00pm 28.6 32.3 23.9 75 3.2 W 11 19 6 10 1013.5 1013.4 0.0
19/09:30pm 28.5 31.6 23.6 75 3.4 W 13 20 7 11 1013.2 1013.1 0.0
19/09:00pm 28.5 30.5 23.9 76 3.2 WNW 20 32 11 17 1012.8 1012.7 0.0
19/08:30pm 28.5 30.3 24.3 78 2.9 WNW 22 30 12 16 1012.3 1012.2 0.0
19/08:00pm 28.8 31.0 24.8 79 2.8 WNW 22 32 12 17 1011.8 1011.7 0.0
19/07:30pm 29.8 32.0 24.2 72 3.9 N 20 28 11 15 1011.3 1011.2 0.0

Latest Capital City Observations: Canberra | Sydney | Melbourne | Brisbane | Adelaide | Perth | Hobart | Darwin

Other Formats:

Comma delimited format used in spreadsheet applications
http://www.bom.gov.au/fwo/IDD60901/IDD60901.99510.axf

JavaScript Object Notation format (JSON) in row-major order
http://www.bom.gov.au/fwo/IDD60901/IDD60901.99510.json